Stanley, ID

8:04 PM MDT on September 14, 2014 (GMT -0600)
Stanley | Change Station
CLOSE
Current Station
Airport
Location: Stanley,
Elevation: 6496 ft
Nearby Weather Stations

Elev 6496 ft 44.17 °N, 114.93 °W | Updated 13 minutes ago

Clear
Clear
66 °F
Feels Like 66 °F
N
6
Wind Variable Wind from SW
Gusts 6 mph

Today
High -- | Low -- °F
--% Chance of Precip.
Yesterday
High -- | Low -- °F
Precip. -- in
7:17 AM 7:51 PM
Waning Gibbous, 60% visible
Pressure 29.98 in
Visibility -9999.0 miles
Clouds
Dew Point 24 °F
Humidity 20%
Rainfall 0.00 in
Snow Depth 0 in , 0 in , 2 in
UV Not available.
Pollen 6.60 out of 12
Air Quality Not available.
Flu Activity Not available.
METAR KSNT 150151Z AUTO 23005KT 19/M04 A3014 RMK AO1 SLP152 T01891044

More Conditions Fewer Conditions

Pressure 29.98 in
Visibility -9999.0 miles
Clouds
Dew Point 24 °F
Humidity 20%
Rainfall 0.00 in
Snow Depth 0 in , 0 in , 2 in
UV Not available.
Pollen 6.60 out of 12
Air Quality Not available.
Flu Activity Not available.
METAR KSNT 150151Z AUTO 23005KT 19/M04 A3014 RMK AO1 SLP152 T01891044

More Conditions Fewer Conditions

10-Day Weather Forecast

Almanac

Astronomy

Sep. 14, 2014 Rise Set
Actual Time 7:17 AM MDT 7:51 PM MDT
Civil Twilight 6:48 AM MDT 8:20 PM MDT
Nautical Twilight 6:13 AM MDT 8:55 PM MDT
Astronomical Twilight 5:37 AM MDT 9:30 PM MDT
Moon 11:34 PM MDT (9/14) 1:40 PM MDT (9/14)
Length of Visible Light 13h 32m
Length of Day
12h 34m
Tomorrow will be 3m 2s shorter.
Waning Gibbous, 60% of the Moon is Illuminated
Today
Waning Gibbous
Sep 15
Last Quarter
Sep 24
New
Oct 1
First Quarter
Oct 8
Full

Today's Extremes

State Highs State Lows

Community

WunderPhotos

Upload Photos

1,753,371 photos uploaded!

Nearby

Snow Depth

Station Depth Elevation
Camas Creek Divide 0 in 5710 ft
Brundage Reservoir 0 in 6300 ft
Smiley Mountain 2 in 9520 ft
Savage Pass 1 in 6170 ft
Humboldt Gulch 2 in 4250 ft

Earthquake Activity

City Distance Mag. Time & Date
No recent earthquake activity has been reported nearby.
Minimum magnitude displayed is 2.5.

Coastal Water Temperatures

Place Temperature
No Stations Reporting

Nearby Weather Stations